Terminal Aerodrome Forecast
Issued by NWS

Home | Current Version | Previous Version | Text Only | Print | Product List | Glossary On
Versions: 1 2 3 4 5 6 7 8 9 10 11 12
168
FTUS42 TJSJ 141130
TAFJPS
TAF
TJPS 141130Z 1412/1512 00000KT P6SM FEW050
     FM141350 14009KT P6SM SCT030 SCT060
     FM142330 09007KT P6SM FEW030
      AMD NOT SKED 1412/1503=

USA.gov is the U.S. government's official web portal to all federal, state and local government web resources and services.